Cavite, Philippines
Current Conditions -  °F | °C
As of 3:00 AM on Friday 24 Oct 2014 (Local Time) from RPLL Reporting Station
Few Clouds Few Clouds  
Wind Chill: 77°   Ceiling: Unl
Heat Index: 78°   Visibility: 6mi
Dew Point: 75°   Wind: 2mph
Humidity: 94%   Direction: 80°E
Pressure: 29.83"   Gusts: NA
Location:  14.47°N, 120.9°E
Report Text: RPLL 231900Z 08002KT 9999 FEW025 25/24 Q1010 NOSIG RMK A2983
Loading
Personal Weather Stations






























Interactive Weather Map
Tropical Storm Tracking
New forecast layout! Learn more

10-Day Weather Forecast

Advertisements
Track Severe Weather on mobile